createdAt,value
2022-11-29T00:01:32.861Z,6.63
2022-11-29T00:04:00.545Z,6.68
2022-11-29T00:06:30.986Z,9.07
2022-11-29T00:09:02.351Z,8.00
2022-11-29T00:11:51.451Z,8.47
2022-11-29T00:14:20.153Z,7.22
2022-11-29T00:16:52.505Z,7.90
2022-11-29T00:19:19.752Z,8.40
2022-11-29T00:21:46.988Z,9.00
2022-11-29T00:24:14.510Z,7.65
2022-11-29T00:26:41.745Z,8.90
2022-11-29T00:29:10.445Z,11.52
2022-11-29T00:31:37.703Z,11.90
2022-11-29T00:34:08.898Z,15.50
2022-11-29T00:36:36.336Z,16.52
2022-11-29T00:39:04.857Z,15.63
2022-11-29T00:41:32.633Z,15.90
2022-11-29T00:43:59.745Z,16.20
2022-11-29T00:46:26.906Z,15.73
2022-11-29T00:48:54.037Z,16.38
2022-11-29T00:51:21.133Z,14.65
2022-11-29T00:53:48.248Z,14.35
2022-11-29T00:56:15.389Z,17.25
2022-11-29T00:58:43.634Z,16.92
2022-11-29T01:01:11.862Z,16.45
2022-11-29T01:03:39.171Z,16.63
2022-11-29T01:06:10.466Z,15.35
2022-11-29T01:08:38.607Z,15.50
2022-11-29T01:11:24.271Z,13.40
2022-11-29T01:13:55.718Z,11.93
2022-11-29T01:16:23.082Z,12.13
2022-11-29T01:18:50.349Z,15.55
2022-11-29T01:21:20.991Z,13.48
2022-11-29T01:23:49.940Z,11.60
2022-11-29T01:26:19.971Z,11.25
2022-11-29T01:28:49.158Z,11.40
2022-11-29T01:31:21.966Z,11.43
2022-11-29T01:33:49.177Z,9.15
2022-11-29T01:36:16.250Z,9.35
2022-11-29T01:38:43.568Z,10.63
2022-11-29T01:41:18.364Z,11.38
2022-11-29T01:43:56.331Z,11.18
2022-11-29T01:46:23.739Z,12.50
2022-11-29T01:48:53.963Z,13.45
2022-11-29T01:51:21.787Z,13.07
2022-11-29T01:53:48.980Z,13.60
2022-11-29T01:56:16.595Z,11.82
2022-11-29T01:58:44.975Z,13.68
2022-11-29T02:01:12.717Z,14.43
2022-11-29T02:03:39.978Z,13.88
2022-11-29T02:06:08.378Z,13.45
2022-11-29T02:08:41.568Z,15.70
2022-11-29T02:11:20.780Z,14.65
2022-11-29T02:14:33.892Z,12.52
2022-11-29T02:17:15.914Z,13.93
2022-11-29T02:19:53.986Z,17.05
2022-11-29T02:22:37.387Z,18.30
2022-11-29T02:25:30.335Z,17.60
2022-11-29T02:28:18.156Z,17.60
2022-11-29T02:31:04.941Z,16.10
2022-11-29T02:33:53.404Z,18.50
2022-11-29T02:36:33.318Z,19.25
2022-11-29T02:39:25.226Z,21.85
2022-11-29T02:42:18.375Z,20.00
2022-11-29T02:45:34.938Z,19.80
2022-11-29T02:48:35.902Z,18.35
2022-11-29T02:51:25.003Z,13.23
2022-11-29T02:54:18.403Z,15.88
2022-11-29T02:56:57.461Z,14.98
2022-11-29T02:59:46.151Z,18.63
2022-11-29T03:02:36.552Z,20.77
2022-11-29T03:05:16.245Z,19.27
2022-11-29T03:08:15.047Z,18.35
2022-11-29T03:11:00.820Z,19.65
2022-11-29T03:13:42.221Z,18.48
2022-11-29T03:16:42.587Z,19.20
2022-11-29T03:19:44.904Z,16.90
2022-11-29T03:22:28.437Z,18.38
2022-11-29T03:25:07.697Z,17.80
2022-11-29T03:27:56.085Z,15.55
2022-11-29T03:30:24.346Z,17.02
2022-11-29T03:33:13.048Z,16.35
2022-11-29T03:36:01.338Z,14.07
2022-11-29T03:38:46.562Z,16.48
2022-11-29T03:41:40.420Z,15.85
2022-11-29T03:44:23.926Z,20.70
2022-11-29T03:47:14.889Z,21.02
2022-11-29T03:50:05.865Z,19.55
2022-11-29T03:52:49.259Z,20.45
2022-11-29T03:55:55.353Z,21.40
2022-11-29T03:59:02.823Z,20.52
2022-11-29T04:01:33.095Z,19.52
2022-11-29T04:04:36.597Z,20.48
2022-11-29T04:07:25.927Z,18.92
2022-11-29T04:10:22.538Z,21.98
2022-11-29T04:13:21.396Z,20.48
2022-11-29T04:16:27.548Z,24.13
2022-11-29T04:19:23.100Z,24.60
2022-11-29T04:22:03.491Z,22.83
2022-11-29T04:24:55.611Z,22.20
2022-11-29T04:31:13.415Z,23.67
2022-11-29T04:34:01.757Z,23.27
2022-11-29T04:37:00.317Z,24.00
2022-11-29T04:40:00.519Z,23.60
2022-11-29T04:42:54.354Z,23.30
2022-11-29T04:46:10.104Z,25.40
2022-11-29T04:48:52.366Z,22.58
2022-11-29T04:51:47.346Z,24.27
2022-11-29T04:54:36.458Z,21.65
2022-11-29T04:57:11.615Z,21.08
2022-11-29T04:59:50.237Z,17.35
2022-11-29T05:02:36.605Z,16.52
2022-11-29T05:05:12.759Z,17.80
2022-11-29T05:07:46.351Z,17.90
2022-11-29T05:10:39.675Z,14.38
2022-11-29T05:13:15.920Z,14.85
2022-11-29T05:15:58.091Z,17.48
2022-11-29T05:18:43.957Z,15.73
2022-11-29T05:21:57.173Z,16.50
2022-11-29T05:24:44.213Z,15.82
2022-11-29T05:27:21.597Z,17.50
2022-11-29T05:30:04.990Z,17.73
2022-11-29T05:32:59.754Z,19.33
2022-11-29T05:35:51.292Z,17.13
2022-11-29T05:38:33.206Z,18.55
2022-11-29T05:41:12.597Z,18.23
2022-11-29T05:44:07.431Z,18.38
2022-11-29T05:46:38.211Z,16.30
2022-11-29T05:49:16.023Z,19.15
2022-11-29T05:51:53.043Z,17.73
2022-11-29T05:54:43.752Z,19.77
2022-11-29T05:57:48.627Z,18.83
2022-11-29T06:00:19.345Z,18.60
2022-11-29T06:03:03.439Z,16.83
2022-11-29T06:05:39.776Z,18.20
2022-11-29T06:08:25.682Z,16.45
2022-11-29T06:11:06.488Z,14.88
2022-11-29T06:13:36.442Z,12.55
2022-11-29T06:16:26.996Z,14.70
2022-11-29T06:18:57.067Z,14.70
2022-11-29T06:21:39.125Z,14.40
2022-11-29T06:24:34.475Z,14.35
2022-11-29T06:27:37.258Z,14.35
2022-11-29T06:32:50.681Z,17.98
2022-11-29T06:35:46.402Z,17.67
2022-11-29T06:38:23.615Z,18.73
2022-11-29T06:40:51.172Z,17.10
2022-11-29T06:43:18.705Z,16.35
2022-11-29T06:45:53.950Z,16.00
2022-11-29T06:48:30.622Z,19.13
2022-11-29T06:51:31.002Z,18.45
2022-11-29T06:54:26.148Z,17.13
2022-11-29T06:57:08.506Z,19.65
2022-11-29T07:02:17.990Z,17.58
2022-11-29T07:04:46.336Z,16.75
2022-11-29T07:07:20.703Z,18.95
2022-11-29T07:09:50.843Z,15.68
2022-11-29T07:12:18.914Z,19.63
2022-11-29T07:14:46.512Z,14.98
2022-11-29T07:17:25.808Z,16.52
2022-11-29T07:20:11.301Z,14.98
2022-11-29T07:23:03.176Z,15.68
2022-11-29T07:26:16.956Z,12.27
2022-11-29T07:28:50.010Z,12.60
2022-11-29T07:31:31.647Z,12.70
2022-11-29T07:34:24.446Z,10.88
2022-11-29T07:36:51.466Z,10.60
2022-11-29T07:39:34.870Z,12.70
2022-11-29T07:42:05.087Z,10.48
2022-11-29T07:44:59.555Z,9.43
2022-11-29T07:47:29.083Z,11.15
2022-11-29T07:49:59.768Z,15.18
2022-11-29T07:52:28.137Z,16.00
2022-11-29T07:54:56.021Z,17.85
2022-11-29T07:57:23.265Z,18.88
2022-11-29T07:59:52.944Z,17.85
2022-11-29T08:02:30.912Z,19.83
2022-11-29T08:04:58.456Z,18.10
2022-11-29T08:07:25.826Z,18.55
2022-11-29T08:09:53.177Z,18.75
2022-11-29T08:12:20.372Z,18.48
2022-11-29T08:14:47.781Z,16.25
2022-11-29T08:17:15.383Z,16.20
2022-11-29T08:19:42.947Z,17.52
2022-11-29T08:22:10.125Z,16.20
2022-11-29T08:24:37.532Z,19.25
2022-11-29T08:27:05.112Z,16.98
2022-11-29T08:29:32.305Z,16.17
2022-11-29T08:31:59.506Z,14.25
2022-11-29T08:34:26.797Z,14.68
2022-11-29T08:36:55.952Z,17.33
2022-11-29T08:39:23.719Z,17.00
2022-11-29T08:41:51.486Z,17.60
2022-11-29T08:44:18.696Z,17.15
2022-11-29T08:47:04.270Z,18.38
2022-11-29T08:49:31.369Z,16.60
2022-11-29T08:52:16.816Z,14.80
2022-11-29T08:54:44.565Z,13.93
2022-11-29T08:59:59.195Z,11.75
2022-11-29T09:02:26.450Z,11.40
2022-11-29T09:04:53.661Z,11.45
2022-11-29T09:07:20.880Z,11.82
2022-11-29T09:09:48.500Z,14.50
2022-11-29T09:12:15.582Z,14.07
2022-11-29T09:14:42.911Z,13.07
2022-11-29T09:17:10.244Z,13.57
2022-11-29T09:19:37.364Z,13.50
2022-11-29T09:22:04.520Z,11.98
2022-11-29T09:24:32.943Z,12.35
2022-11-29T09:27:00.084Z,13.63
2022-11-29T09:29:27.346Z,11.85
2022-11-29T09:31:54.920Z,10.90
2022-11-29T09:34:23.487Z,10.82
2022-11-29T09:36:50.937Z,9.98
2022-11-29T09:39:18.389Z,10.63
2022-11-29T09:41:57.492Z,10.95
2022-11-29T09:45:01.289Z,9.35
2022-11-29T09:47:38.906Z,8.45
2022-11-29T09:50:09.302Z,7.97
2022-11-29T09:52:54.315Z,8.40
2022-11-29T09:55:30.186Z,7.53
2022-11-29T09:58:00.158Z,7.53
2022-11-29T10:00:30.042Z,8.18
2022-11-29T10:03:03.572Z,9.70
2022-11-29T10:06:02.737Z,9.60
2022-11-29T10:08:46.141Z,10.02
2022-11-29T10:11:19.690Z,8.73
2022-11-29T10:14:14.885Z,8.68
2022-11-29T10:16:48.021Z,6.45
2022-11-29T10:19:33.340Z,9.82
2022-11-29T10:22:13.699Z,8.75
2022-11-29T10:24:46.415Z,10.30
2022-11-29T10:27:23.859Z,9.18
2022-11-29T10:29:54.804Z,10.68
2022-11-29T10:32:25.422Z,10.77
2022-11-29T10:34:52.739Z,8.65
2022-11-29T10:37:24.901Z,8.00
2022-11-29T10:42:46.927Z,6.63
2022-11-29T10:45:31.245Z,6.60
2022-11-29T10:48:04.274Z,7.47
2022-11-29T10:50:34.961Z,8.18
2022-11-29T10:53:17.279Z,8.52
2022-11-29T10:55:53.602Z,8.57
2022-11-29T10:58:27.512Z,8.02
2022-11-29T11:00:57.146Z,9.60
2022-11-29T11:03:43.051Z,9.57
2022-11-29T11:06:22.523Z,12.48
2022-11-29T11:09:11.403Z,12.07
2022-11-29T11:11:39.840Z,13.25
2022-11-29T11:14:18.838Z,13.35
2022-11-29T11:16:46.340Z,13.10
2022-11-29T11:19:28.382Z,10.73
2022-11-29T11:21:57.891Z,10.32
2022-11-29T11:24:31.308Z,10.68
2022-11-29T11:27:00.085Z,15.18
2022-11-29T11:29:42.342Z,15.95
2022-11-29T11:32:18.769Z,14.63
2022-11-29T11:34:55.053Z,12.45
2022-11-29T11:37:32.698Z,15.90
2022-11-29T11:40:26.520Z,17.70
2022-11-29T11:42:54.874Z,18.05
2022-11-29T11:45:36.557Z,18.52
2022-11-29T11:48:12.781Z,18.67
2022-11-29T11:50:56.499Z,16.25
2022-11-29T11:53:35.782Z,16.63
2022-11-29T11:56:09.865Z,16.63
2022-11-29T11:58:48.118Z,16.85
2022-11-29T12:01:23.329Z,17.92
2022-11-29T12:04:13.900Z,18.80
2022-11-29T12:06:52.307Z,20.00
2022-11-29T12:09:25.565Z,19.60
2022-11-29T12:12:22.042Z,19.40
2022-11-29T12:14:52.264Z,16.55
2022-11-29T12:17:22.713Z,25.40
2022-11-29T12:20:04.904Z,20.73
2022-11-29T12:22:46.697Z,16.80
2022-11-29T12:25:24.690Z,16.50
2022-11-29T12:27:52.229Z,16.83
2022-11-29T12:30:20.154Z,16.58
2022-11-29T12:33:13.104Z,16.85
2022-11-29T12:36:08.253Z,15.68
2022-11-29T12:39:03.842Z,14.93
2022-11-29T12:41:57.502Z,13.55
2022-11-29T12:44:33.563Z,17.10
2022-11-29T12:47:35.618Z,15.25
2022-11-29T12:50:26.286Z,15.60
2022-11-29T12:53:26.762Z,16.92
2022-11-29T12:56:14.878Z,15.95
2022-11-29T12:59:15.424Z,16.55
2022-11-29T13:02:19.413Z,13.88
2022-11-29T13:05:23.502Z,12.77
2022-11-29T13:08:12.203Z,11.98
2022-11-29T13:10:42.110Z,14.25
2022-11-29T13:13:15.184Z,12.00
2022-11-29T13:16:10.016Z,12.48
2022-11-29T13:19:19.574Z,14.15
2022-11-29T13:22:21.520Z,13.05
2022-11-29T13:24:51.735Z,11.47
2022-11-29T13:27:27.246Z,11.43
2022-11-29T13:29:56.157Z,11.80
2022-11-29T13:33:07.658Z,11.52
2022-11-29T13:35:52.735Z,11.50
2022-11-29T13:38:36.636Z,13.52
2022-11-29T13:41:16.157Z,16.27
2022-11-29T13:43:51.955Z,14.88
2022-11-29T13:46:37.361Z,16.35
2022-11-29T13:49:04.549Z,15.38
2022-11-29T13:51:37.175Z,13.60
2022-11-29T13:54:07.494Z,14.85
2022-11-29T13:56:46.005Z,13.73
2022-11-29T13:59:27.694Z,13.32
2022-11-29T14:01:55.284Z,12.23
2022-11-29T14:04:30.665Z,10.63
2022-11-29T14:07:08.853Z,11.70
2022-11-29T14:09:40.736Z,10.85
2022-11-29T14:12:39.301Z,8.80
2022-11-29T14:15:24.907Z,8.45
2022-11-29T14:17:56.301Z,8.10
2022-11-29T14:20:23.409Z,8.17
2022-11-29T14:23:15.357Z,8.65
2022-11-29T14:26:02.589Z,7.65
2022-11-29T14:28:32.795Z,8.75
2022-11-29T14:31:02.010Z,8.43
2022-11-29T14:33:46.455Z,10.73
2022-11-29T14:36:20.777Z,8.65
2022-11-29T14:39:10.484Z,10.95
2022-11-29T14:42:04.852Z,11.05
2022-11-29T14:44:34.492Z,11.50
2022-11-29T14:47:06.510Z,10.07
2022-11-29T14:49:42.490Z,10.60
2022-11-29T14:52:15.758Z,8.85
2022-11-29T14:54:59.768Z,7.53
2022-11-29T14:57:48.321Z,7.75
2022-11-29T15:00:23.240Z,6.93
2022-11-29T15:03:09.127Z,6.88
2022-11-29T15:06:00.327Z,8.35
2022-11-29T15:08:37.427Z,6.75
2022-11-29T15:11:10.408Z,7.20
2022-11-29T15:13:44.549Z,7.32
2022-11-29T15:16:11.773Z,8.40
2022-11-29T15:18:59.496Z,7.50
2022-11-29T15:21:40.083Z,6.70
2022-11-29T15:24:13.266Z,7.97
2022-11-29T15:26:55.849Z,6.63
2022-11-29T15:29:23.835Z,6.97
2022-11-29T15:31:54.791Z,6.72
2022-11-29T15:34:30.678Z,8.38
2022-11-29T15:36:58.910Z,6.38
2022-11-29T15:39:44.288Z,8.05
2022-11-29T15:42:15.823Z,7.20
2022-11-29T15:44:48.808Z,8.55
2022-11-29T15:47:24.118Z,7.13
2022-11-29T15:49:53.248Z,7.20
2022-11-29T15:52:31.749Z,7.80
2022-11-29T15:55:02.419Z,7.47
2022-11-29T15:57:36.820Z,8.93
2022-11-29T16:00:09.387Z,8.82
2022-11-29T16:02:40.896Z,10.52
2022-11-29T16:05:19.260Z,13.73
2022-11-29T16:07:48.103Z,9.43
2022-11-29T16:10:19.575Z,10.23
2022-11-29T16:13:20.978Z,9.43
2022-11-29T16:15:48.375Z,8.65
2022-11-29T16:18:21.805Z,9.15
2022-11-29T16:21:04.326Z,9.05
2022-11-29T16:23:39.938Z,9.57
2022-11-29T16:26:13.797Z,10.35
2022-11-29T16:28:47.514Z,10.13
2022-11-29T16:31:22.940Z,11.23
2022-11-29T16:33:52.518Z,11.02
2022-11-29T16:36:26.690Z,12.02
2022-11-29T16:38:58.146Z,11.52
2022-11-29T16:42:01.392Z,10.50
2022-11-29T16:44:41.545Z,10.95
2022-11-29T16:47:32.195Z,13.27
2022-11-29T16:50:02.333Z,10.35
2022-11-29T16:52:32.347Z,10.35
2022-11-29T16:55:00.621Z,11.38
2022-11-29T16:57:29.425Z,11.32
2022-11-29T16:59:56.573Z,11.93
2022-11-29T17:02:24.099Z,12.77
2022-11-29T17:04:51.811Z,10.10
2022-11-29T17:07:27.011Z,11.35
2022-11-29T17:09:54.856Z,11.45
2022-11-29T17:12:25.738Z,10.90
2022-11-29T17:14:55.687Z,13.05
2022-11-29T17:17:22.896Z,11.32
2022-11-29T17:19:50.052Z,13.35
2022-11-29T17:22:17.213Z,13.50
2022-11-29T17:24:48.327Z,15.70
2022-11-29T17:27:15.986Z,15.35
2022-11-29T17:29:43.303Z,15.07
2022-11-29T17:32:10.491Z,12.75
2022-11-29T17:34:37.743Z,12.88
2022-11-29T17:37:04.931Z,11.95
2022-11-29T17:39:32.571Z,12.82
2022-11-29T17:41:59.750Z,13.35
2022-11-29T17:44:26.872Z,12.48
2022-11-29T17:46:58.429Z,13.90
2022-11-29T17:49:29.092Z,12.65
2022-11-29T17:51:56.203Z,15.15
2022-11-29T17:54:26.389Z,14.88
2022-11-29T17:56:53.579Z,15.05
2022-11-29T17:59:20.750Z,14.07
2022-11-29T18:01:47.999Z,15.77
2022-11-29T18:04:15.462Z,13.55
2022-11-29T18:06:45.292Z,13.98
2022-11-29T18:09:13.033Z,16.52
2022-11-29T18:11:48.725Z,13.60
2022-11-29T18:14:20.122Z,15.07
2022-11-29T18:16:47.527Z,15.48
2022-11-29T18:19:17.730Z,13.82
2022-11-29T18:21:45.528Z,14.50
2022-11-29T18:24:12.772Z,13.75
2022-11-29T18:26:40.723Z,13.82
2022-11-29T18:29:08.681Z,12.95
2022-11-29T18:31:38.888Z,13.80
2022-11-29T18:34:11.750Z,12.73
2022-11-29T18:36:43.061Z,13.65
2022-11-29T18:39:17.383Z,15.55
2022-11-29T18:41:50.102Z,16.88
2022-11-29T18:44:19.896Z,17.55
2022-11-29T18:46:47.423Z,15.57
2022-11-29T18:49:17.458Z,15.93
2022-11-29T18:51:46.125Z,20.27
2022-11-29T18:54:15.349Z,18.35
2022-11-29T18:56:43.596Z,17.25
2022-11-29T18:59:16.642Z,21.77
2022-11-29T19:01:45.445Z,19.38
2022-11-29T19:04:20.568Z,21.42
2022-11-29T19:06:48.346Z,19.35
2022-11-29T19:09:19.294Z,22.17
2022-11-29T19:11:46.568Z,18.85
2022-11-29T19:14:14.112Z,16.73
2022-11-29T19:16:47.805Z,16.67
2022-11-29T19:19:15.083Z,15.55
2022-11-29T19:21:42.649Z,16.48
2022-11-29T19:24:15.323Z,21.50
2022-11-29T19:26:44.914Z,22.25
2022-11-29T19:29:13.800Z,18.45
2022-11-29T19:31:41.275Z,15.55
2022-11-29T19:34:08.703Z,17.60
2022-11-29T19:36:44.778Z,16.33
2022-11-29T19:39:14.008Z,16.17
2022-11-29T19:41:43.557Z,15.30
2022-11-29T19:44:11.419Z,16.63
2022-11-29T19:46:41.555Z,16.85
2022-11-29T19:49:10.598Z,18.65
2022-11-29T19:51:38.670Z,16.90
2022-11-29T19:54:09.175Z,15.32
2022-11-29T19:56:36.609Z,16.20
2022-11-29T19:59:05.655Z,18.75
2022-11-29T20:01:40.312Z,16.50
2022-11-29T20:04:09.667Z,20.35
2022-11-29T20:06:37.043Z,15.45
2022-11-29T20:09:06.543Z,15.60
2022-11-29T20:11:33.949Z,18.35
2022-11-29T20:14:02.303Z,17.08
2022-11-29T20:16:31.389Z,19.08
2022-11-29T20:18:59.690Z,18.48
2022-11-29T20:21:32.648Z,15.38
2022-11-29T20:24:06.216Z,16.83
2022-11-29T20:26:36.618Z,16.67
2022-11-29T20:29:05.613Z,15.90
2022-11-29T20:31:35.034Z,17.20
2022-11-29T20:34:02.830Z,18.05
2022-11-29T20:36:35.970Z,16.55
2022-11-29T20:39:18.141Z,18.85
2022-11-29T20:41:49.167Z,17.13
2022-11-29T20:44:53.788Z,15.30
2022-11-29T20:47:23.817Z,15.95
2022-11-29T20:49:51.778Z,15.65
2022-11-29T20:53:20.124Z,16.90
2022-11-29T20:55:49.175Z,18.38
2022-11-29T20:58:18.295Z,16.67
2022-11-29T21:00:45.984Z,17.77
2022-11-29T21:03:17.889Z,15.50
2022-11-29T21:05:45.230Z,19.88
2022-11-29T21:08:13.446Z,18.85
2022-11-29T21:10:40.692Z,22.92
2022-11-29T21:13:10.680Z,21.30
2022-11-29T21:15:38.615Z,22.40
2022-11-29T21:18:06.024Z,22.67
2022-11-29T21:20:33.712Z,19.05
2022-11-29T21:23:13.127Z,18.65
2022-11-29T21:26:04.231Z,15.68
2022-11-29T21:28:52.399Z,16.88
2022-11-29T21:31:19.810Z,17.17
2022-11-29T21:33:47.409Z,17.00
2022-11-29T21:36:14.750Z,16.55
2022-11-29T21:38:42.003Z,16.35
2022-11-29T21:41:09.245Z,17.30
2022-11-29T21:44:04.984Z,15.52
2022-11-29T21:46:23.641Z,15.20
2022-11-29T21:48:52.006Z,17.33
2022-11-29T21:51:19.540Z,16.17
2022-11-29T21:53:46.716Z,17.13
2022-11-29T21:56:14.493Z,16.70
2022-11-29T21:58:41.842Z,17.02
2022-11-29T22:01:20.347Z,16.65
2022-11-29T22:03:47.983Z,18.15
2022-11-29T22:06:20.841Z,18.98
2022-11-29T22:08:48.750Z,16.73
2022-11-29T22:11:30.904Z,15.63
2022-11-29T22:14:18.785Z,16.85
2022-11-29T22:16:54.630Z,15.73
2022-11-29T22:19:22.725Z,19.63
2022-11-29T22:21:52.059Z,14.60
2022-11-29T22:24:21.678Z,17.10
2022-11-29T22:26:50.581Z,15.23
2022-11-29T22:29:18.682Z,19.20
2022-11-29T22:31:47.750Z,23.48
2022-11-29T22:34:15.482Z,23.10
2022-11-29T22:36:42.622Z,24.45
2022-11-29T22:39:09.987Z,20.55
2022-11-29T22:41:38.642Z,21.27
2022-11-29T22:44:06.671Z,21.92
2022-11-29T22:46:37.387Z,19.90
2022-11-29T22:49:04.677Z,18.65
2022-11-29T22:51:34.631Z,18.17
2022-11-29T22:54:04.478Z,17.23
2022-11-29T22:56:34.452Z,17.75
2022-11-29T22:59:01.774Z,21.08
2022-11-29T23:01:31.037Z,21.00
2022-11-29T23:04:00.171Z,21.42
2022-11-29T23:06:30.077Z,19.52
2022-11-29T23:08:59.788Z,20.58
2022-11-29T23:11:29.288Z,19.95
2022-11-29T23:13:56.917Z,19.77
2022-11-29T23:16:29.491Z,17.40
2022-11-29T23:18:58.555Z,19.63
2022-11-29T23:21:27.132Z,19.23
2022-11-29T23:23:56.636Z,19.58
2022-11-29T23:26:27.634Z,22.42
2022-11-29T23:28:55.706Z,20.90
2022-11-29T23:31:24.127Z,20.35
2022-11-29T23:33:51.457Z,21.17
2022-11-29T23:36:20.079Z,18.63
2022-11-29T23:38:47.879Z,21.95
2022-11-29T23:41:15.304Z,21.35
2022-11-29T23:43:42.656Z,20.13
2022-11-29T23:46:22.930Z,21.83
2022-11-29T23:48:50.809Z,21.02
2022-11-29T23:51:18.889Z,20.25
2022-11-29T23:53:46.849Z,18.33
2022-11-29T23:56:18.250Z,21.30
2022-11-29T23:58:46.003Z,18.93
